Saturday, August 1, 2015, 7:44 AM EDT
Back to Local

KCXY, Harrisburg Capital City

Location: New Cumberland, PA, United States Lat: 40.217
Local Time: 7:44 AM EDT (11:44 GMT) Lon: -76.85
Time Zone: US/Eastern Elev: 347 ft

Show me the last for .
Show Coded

Time T Td Feel RH Dir Speed Gust Alt SLP Vis Weather Sky Remarks
2015-08-01 06:56 70 60 - 70 270° 7 - 29.85 29.85 10 BKN100 BKN120 None
2015-08-01 05:56 67 59 - 75 240° 5 - 29.84 29.83 10 FEW110 None
2015-08-01 04:56 68 59 - 72 230° 3 - 29.83 29.82 10 FEW110 None
2015-08-01 03:56 69 59 - 70 260° 6 - 29.83 29.82 10 CLR None
2015-08-01 02:56 71 60 76 68 250° 7 - 29.84 29.84 10 CLR None
2015-08-01 01:56 69 61 - 75 240° 5 - 29.85 29.85 10 CLR 6-hr Min Temp (2am): 69.1°F
6-hr Max Temp (2am): 82.9°F
2015-08-01 00:56 71 62 76 73 250° 3 - 29.86 29.85 10 CLR 24-hr Min Temp (1am): 64.0°F
24-hr Max Temp (1am): 89.1°F
2015-07-31 23:56 72 61 76 68 230° 5 - 29.86 29.86 10 CLR None
2015-07-31 22:56 75 59 78 57 260° 5 - 29.86 29.86 10 CLR None
2015-07-31 21:56 77 59 79 53 260° 6 - 29.86 29.85 10 CLR None
2015-07-31 20:56 79 59 80 50 250° 6 - 29.84 29.83 10 CLR None
2015-07-31 19:56 83 60 84 46 240° 3 - 29.84 29.83 10 CLR 6-hr Min Temp (8pm): 82.0°F
6-hr Max Temp (8pm): 89.1°F
2015-07-31 18:56 86 57 - 37 240° 7 - 29.84 29.83 10 CLR None
2015-07-31 17:56 87 57 - 36 220° 13 - 29.84 29.84 10 FEW070 None
2015-07-31 16:56 88 55 - 32 270° 7 - 29.86 29.85 10 FEW070 None
2015-07-31 15:56 89 55 - 31 300° 8 - 29.87 29.87 10 FEW070 None
2015-07-31 14:56 87 53 - 31 - Calm - 29.89 29.88 10 FEW060 None
2015-07-31 13:56 87 55 - 33 350° 9 - 29.91 29.90 10 FEW060 6-hr Min Temp (2pm): 71.1°F
6-hr Max Temp (2pm): 88.0°F
2015-07-31 12:56 87 53 - 31 350° 9 - 29.91 29.91 10 SCT060 None
2015-07-31 11:56 86 57 - 37 Variable 7 - 29.93 29.92 10 CLR None
2015-07-31 09:56 80 59 81 48 270° 9 - 29.94 29.93 10 CLR None
2015-07-31 08:56 75 59 78 57 280° 8 - 29.94 29.94 10 CLR None
2015-07-31 07:56 71 59 76 65 270° 7 - 29.94 29.94 10 CLR 24-hr Precip Total (8am): 0.01"
6-hr Min Temp (8am): 64.0°F
6-hr Max Temp (8am): 71.1°F

Support USWX by starting your Amazon purchase here.